Time;durP1;ratioP1;P1;durP2;ratioP2;P2;SDS_P1;SDS_P2;PMS_P1;PMS_P2;Temp;Humidity;BMP_temperature;BMP_pressure;BME280_temperature;BME280_humidity;BME280_pressure;Samples;Min_cycle;Max_cycle;Signal;HPM_P1;HPM_P2
2022/08/13 00:01:17;;;;;;;1.92;1.50;;;;;;;18.94;63.87;99903.97;4895695;29;20124;-64
2022/08/13 00:03:44;;;;;;;7.47;1.55;;;;;;;18.97;64.05;99910.97;4899480;29;20051;-64
2022/08/13 00:06:11;;;;;;;2.72;1.50;;;;;;;18.89;64.08;99913.31;4899638;29;20028;-64
2022/08/13 00:08:39;;;;;;;2.42;1.30;;;;;;;18.92;64.26;99918.50;4899377;29;20039;-64
2022/08/13 00:11:06;;;;;;;4.47;1.40;;;;;;;18.91;64.66;99917.63;4899717;29;20032;-64
2022/08/13 00:13:33;;;;;;;2.25;1.42;;;;;;;18.86;65.34;99913.53;4899606;29;20037;-64
2022/08/13 00:15:59;;;;;;;1.95;1.40;;;;;;;18.84;65.05;99915.47;4898852;29;20029;-64
2022/08/13 00:18:26;;;;;;;3.90;1.60;;;;;;;18.80;65.27;99919.31;4901054;29;20076;-64
2022/08/13 00:20:55;;;;;;;2.25;1.50;;;;;;;18.69;67.33;99917.38;4898736;29;20039;-64
2022/08/13 00:23:24;;;;;;;2.83;1.40;;;;;;;18.64;67.62;99924.03;4900813;29;20105;-64
2022/08/13 00:25:54;;;;;;;1.85;1.20;;;;;;;18.56;67.93;99919.16;4898623;29;20045;-64
2022/08/13 00:28:21;;;;;;;1.52;1.17;;;;;;;18.48;68.94;99923.31;4898585;29;20032;-64
2022/08/13 00:30:47;;;;;;;6.00;1.70;;;;;;;18.35;68.57;99913.31;4882019;29;20032;-64
2022/08/13 00:33:15;;;;;;;11.23;2.00;;;;;;;18.36;69.44;99924.97;4898990;29;20039;-64
2022/08/13 00:35:42;;;;;;;18.25;3.60;;;;;;;18.24;69.91;99899.69;4901557;29;20043;-64
2022/08/13 00:38:13;;;;;;;33.97;5.30;;;;;;;18.31;70.44;99921.72;4898993;29;20481;-64
2022/08/13 00:40:44;;;;;;;21.50;3.90;;;;;;;18.29;70.02;99916.44;4899171;29;20044;-64
2022/08/13 00:43:10;;;;;;;22.25;3.90;;;;;;;18.29;70.66;99919.13;4898805;29;20028;-64
2022/08/13 00:45:35;;;;;;;21.13;3.40;;;;;;;18.28;70.87;99919.22;4898645;29;20080;-64
2022/08/13 00:50:48;;;;;;;13.23;2.65;;;;;;;18.28;71.06;99917.41;4899058;29;20556;-64
2022/08/13 00:53:17;;;;;;;17.55;2.67;;;;;;;18.35;70.86;99913.31;4898786;29;20115;-64
2022/08/13 00:55:45;;;;;;;13.45;2.20;;;;;;;18.43;71.28;99912.00;4898766;29;20083;-64
2022/08/13 00:58:11;;;;;;;9.07;2.00;;;;;;;18.48;71.28;99918.81;4898560;29;20025;-64
2022/08/13 01:00:37;;;;;;;6.30;1.90;;;;;;;18.45;70.96;99908.22;4898700;29;20052;-64
2022/08/13 01:03:03;;;;;;;5.93;2.00;;;;;;;18.52;70.95;99916.78;4897648;29;20540;-63
2022/08/13 01:05:29;;;;;;;4.22;1.70;;;;;;;18.53;70.19;99916.69;4896916;29;20099;-63
2022/08/13 01:07:55;;;;;;;2.67;1.45;;;;;;;18.57;69.94;99911.91;4897015;29;20032;-63
2022/08/13 01:10:20;;;;;;;2.85;1.48;;;;;;;18.55;69.87;99919.28;4896994;29;20686;-63
2022/08/13 01:12:50;;;;;;;2.80;1.30;;;;;;;18.51;69.41;99912.34;4896521;29;20024;-63
2022/08/13 01:15:16;;;;;;;3.28;1.50;;;;;;;18.40;70.30;99906.81;4896975;29;20040;-63
2022/08/13 01:17:45;;;;;;;1.75;1.40;;;;;;;18.35;70.74;99916.00;4897399;29;20077;-63
2022/08/13 01:20:20;;;;;;;8.15;1.58;;;;;;;18.27;70.00;99904.88;4897360;29;20552;-63
2022/08/13 01:22:49;;;;;;;3.70;1.95;;;;;;;18.27;69.99;99912.09;4878755;29;20069;-63
2022/08/13 01:25:16;;;;;;;3.45;1.58;;;;;;;18.25;70.43;99914.88;4882297;29;20115;-63
2022/08/13 01:27:41;;;;;;;3.10;1.58;;;;;;;18.23;70.70;99918.66;4878854;29;20041;-63
2022/08/13 01:30:09;;;;;;;6.13;1.83;;;;;;;18.20;70.83;99914.31;4878783;29;20029;-63
2022/08/13 01:32:37;;;;;;;2.70;1.40;;;;;;;18.22;71.49;99920.47;4889302;29;20025;-63
2022/08/13 01:35:05;;;;;;;2.67;1.52;;;;;;;18.19;70.74;99917.09;4898029;29;20405;-63
2022/08/13 01:37:31;;;;;;;4.03;1.33;;;;;;;18.15;70.90;99915.59;4897884;29;20493;-63
2022/08/13 01:39:57;;;;;;;2.58;1.40;;;;;;;18.10;71.02;99918.56;4897678;29;20116;-63
2022/08/13 01:42:23;;;;;;;6.53;1.63;;;;;;;18.07;71.62;99907.16;4898047;29;20034;-63
2022/08/13 01:44:48;;;;;;;6.45;1.85;;;;;;;18.11;71.99;99919.44;4897832;29;20107;-63
2022/08/13 01:52:45;;;;;;;4.72;1.67;;;;;;;18.06;71.61;99921.56;4897742;29;20044;-63
2022/08/13 01:55:12;;;;;;;4.80;2.47;;;;;;;18.06;71.75;99922.44;4897874;29;20392;-63
2022/08/13 01:57:40;;;;;;;3.42;1.50;;;;;;;18.00;71.68;99921.97;4897683;29;20114;-63
2022/08/13 02:00:08;;;;;;;3.50;2.08;;;;;;;18.03;72.06;99922.63;4897500;29;20135;-63
2022/08/13 02:02:34;;;;;;;4.10;1.33;;;;;;;18.01;72.21;99923.69;4897397;29;20028;-62
2022/08/13 02:05:00;;;;;;;2.40;1.50;;;;;;;17.98;72.52;99924.75;4897371;29;20772;-63
2022/08/13 02:07:25;;;;;;;2.03;1.50;;;;;;;17.92;72.92;99913.53;4897575;29;20589;-63
2022/08/13 02:09:52;;;;;;;2.60;1.40;;;;;;;17.91;73.42;99912.66;4897402;29;20473;-63
2022/08/13 02:12:17;;;;;;;3.42;1.60;;;;;;;17.87;72.53;99911.13;4897123;29;20142;-62
2022/08/13 02:14:43;;;;;;;2.55;1.70;;;;;;;17.85;72.37;99918.44;4898962;29;20099;-63
2022/08/13 02:17:24;;;;;;;3.08;1.65;;;;;;;17.85;72.33;99920.25;4896622;29;20041;-62
2022/08/13 02:19:54;;;;;;;3.17;1.33;;;;;;;17.77;72.53;99910.00;4896757;29;20104;-62
2022/08/13 02:22:22;;;;;;;2.45;1.40;;;;;;;17.82;72.73;99932.09;4896634;29;20036;-63
2022/08/13 02:24:57;;;;;;;5.28;1.83;;;;;;;17.75;73.18;99925.38;4896106;29;20028;-63
2022/08/13 02:27:25;;;;;;;2.53;1.55;;;;;;;17.73;73.65;99932.66;4896607;29;20123;-63
2022/08/13 02:29:52;;;;;;;2.53;1.50;;;;;;;17.64;73.60;99929.69;4879953;29;20421;-63
2022/08/13 02:32:18;;;;;;;3.10;1.42;;;;;;;17.52;74.42;99917.88;4899616;29;20092;-63
2022/08/13 02:34:50;;;;;;;2.38;1.60;;;;;;;17.59;74.31;99937.19;4899082;29;20029;-63
2022/08/13 02:37:21;;;;;;;2.30;1.52;;;;;;;17.55;74.01;99941.88;4896435;29;20060;-63
2022/08/13 02:39:50;;;;;;;3.38;1.63;;;;;;;17.55;73.91;99941.88;4896069;29;20028;-63
2022/08/13 02:42:18;;;;;;;4.75;1.60;;;;;;;17.49;73.25;99930.63;4896040;29;20457;-62
2022/08/13 02:44:47;;;;;;;2.83;1.73;;;;;;;17.51;72.60;99948.41;4895984;29;20129;-62
2022/08/13 02:47:14;;;;;;;2.53;1.60;;;;;;;17.52;72.49;99955.53;4895985;29;20128;-63
2022/08/13 02:49:40;;;;;;;2.33;1.40;;;;;;;17.52;73.21;99947.47;4896237;29;20036;-62
2022/08/13 02:52:08;;;;;;;2.17;1.52;;;;;;;17.47;72.57;99930.75;4896763;29;20076;-62
2022/08/13 02:54:39;;;;;;;2.30;1.50;;;;;;;17.43;72.81;99949.81;4896952;29;20024;-63
2022/08/13 02:57:04;;;;;;;3.10;1.55;;;;;;;17.43;72.62;99947.97;4896729;29;20496;-63
2022/08/13 02:59:30;;;;;;;4.22;1.60;;;;;;;17.39;73.44;99946.44;4896325;29;20053;-63
2022/08/13 03:01:56;;;;;;;2.58;2.05;;;;;;;17.37;72.18;99945.69;4896546;29;20437;-63
2022/08/13 03:04:22;;;;;;;2.92;1.80;;;;;;;17.42;72.88;99945.38;4896455;29;20024;-63
2022/08/13 03:06:49;;;;;;;7.75;1.75;;;;;;;17.35;73.36;99950.28;4896494;29;20028;-63
2022/08/13 03:09:15;;;;;;;3.30;1.50;;;;;;;17.40;72.73;99942.78;4896081;29;20052;-62
2022/08/13 03:11:40;;;;;;;2.30;1.73;;;;;;;17.37;72.92;99937.59;4896363;29;20024;-62
2022/08/13 03:14:09;;;;;;;7.68;2.55;;;;;;;17.32;73.78;99937.03;4896472;29;20111;-63
2022/08/13 03:16:35;;;;;;;4.22;1.65;;;;;;;17.25;74.56;99943.72;4896008;29;20020;-63
2022/08/13 03:19:01;;;;;;;4.30;1.95;;;;;;;17.21;74.55;99950.25;4896258;29;20168;-63
2022/08/13 03:21:38;;;;;;;4.60;1.77;;;;;;;17.17;74.25;99947.81;4896222;29;20028;-63
2022/08/13 03:24:06;;;;;;;3.28;1.80;;;;;;;17.13;73.93;99943.63;4895991;29;20032;-62
2022/08/13 03:26:33;;;;;;;5.45;1.67;;;;;;;17.08;73.91;99946.59;4896088;29;20028;-62
2022/08/13 03:29:00;;;;;;;2.45;1.60;;;;;;;17.03;73.79;99946.84;4895919;29;20047;-62
2022/08/13 03:31:27;;;;;;;4.28;1.65;;;;;;;17.02;74.81;99941.56;4896210;29;20031;-63
2022/08/13 03:33:53;;;;;;;5.15;1.70;;;;;;;17.00;75.01;99943.50;4895989;29;20028;-63
2022/08/13 03:36:20;;;;;;;6.20;1.90;;;;;;;16.96;74.97;99941.94;4894798;29;20092;-63
2022/08/13 03:38:46;;;;;;;3.75;2.03;;;;;;;16.94;75.27;99943.84;4896177;29;20084;-62
2022/08/13 03:41:12;;;;;;;4.78;1.83;;;;;;;16.93;74.28;99942.13;4896014;29;20028;-63
2022/08/13 03:43:47;;;;;;;5.60;2.00;;;;;;;16.94;73.94;99949.22;4895984;29;20108;-62
2022/08/13 03:46:16;;;;;;;4.57;1.95;;;;;;;16.97;73.14;99943.66;4895905;29;20115;-62
2022/08/13 03:48:42;;;;;;;2.95;1.58;;;;;;;16.97;72.91;99947.22;4895572;29;20077;-62
2022/08/13 03:51:08;;;;;;;5.10;1.98;;;;;;;16.87;72.59;99939.78;4894921;29;20032;-63
2022/08/13 03:53:35;;;;;;;4.53;1.77;;;;;;;16.89;72.54;99954.88;4895229;29;20052;-62
2022/08/13 03:56:02;;;;;;;5.68;2.30;;;;;;;16.88;73.12;99950.47;4878102;29;20091;-63
2022/08/13 03:58:29;;;;;;;10.40;2.65;;;;;;;16.77;74.00;99930.56;4895181;29;20039;-63
2022/08/13 04:00:55;;;;;;;5.60;2.13;;;;;;;16.85;73.38;99942.56;4894937;29;20707;-63
2022/08/13 04:03:28;;;;;;;4.47;1.98;;;;;;;16.82;73.59;99940.06;4895342;29;20131;-62
2022/08/13 04:06:03;;;;;;;4.82;1.80;;;;;;;16.82;73.23;99949.94;4895936;29;20037;-62
2022/08/13 04:08:34;;;;;;;4.10;1.88;;;;;;;16.77;73.88;99952.06;4898207;29;20103;-63
2022/08/13 04:11:05;;;;;;;3.10;1.67;;;;;;;16.75;74.03;99953.97;4895626;29;20043;-62
2022/08/13 04:13:36;;;;;;;10.68;2.53;;;;;;;16.72;75.07;99955.00;4895809;29;20029;-62
2022/08/13 04:16:18;;;;;;;5.38;1.80;;;;;;;16.67;75.04;99964.28;4895813;29;20384;-62
2022/08/13 04:18:45;;;;;;;6.22;2.13;;;;;;;16.71;75.87;99964.00;4895842;29;20026;-62
2022/08/13 04:21:14;;;;;;;3.00;1.95;;;;;;;16.73;76.63;99961.22;4895619;29;20031;-63
2022/08/13 04:23:41;;;;;;;2.75;1.70;;;;;;;16.90;76.11;99956.59;4895914;29;20040;-62
2022/08/13 04:26:08;;;;;;;5.30;2.05;;;;;;;16.92;75.64;99965.44;4895570;29;20465;-62
2022/08/13 04:28:34;;;;;;;4.03;2.08;;;;;;;16.89;75.62;99967.44;4895554;29;20040;-63
2022/08/13 04:31:00;;;;;;;6.00;2.10;;;;;;;16.85;76.29;99964.06;4895121;29;20048;-63
2022/08/13 04:33:27;;;;;;;6.57;2.40;;;;;;;16.79;76.83;99964.44;4894544;29;20397;-63
2022/08/13 04:35:53;;;;;;;8.27;2.30;;;;;;;16.92;76.69;99959.19;4894137;29;20053;-62
2022/08/13 04:38:18;;;;;;;5.10;2.15;;;;;;;16.93;76.72;99963.63;4896545;29;20071;-63
2022/08/13 04:40:46;;;;;;;3.92;1.92;;;;;;;16.97;76.46;99962.47;4893926;29;20057;-62
2022/08/13 04:43:13;;;;;;;6.55;1.90;;;;;;;16.88;77.66;99971.97;4896120;29;20091;-62
2022/08/13 04:45:40;;;;;;;5.03;2.20;;;;;;;16.82;78.23;99966.94;4894021;29;20044;-62
2022/08/13 04:48:09;;;;;;;3.00;1.60;;;;;;;16.85;77.68;99968.59;4896352;29;20101;-62
2022/08/13 04:50:35;;;;;;;2.30;1.73;;;;;;;16.86;78.15;99971.19;4898955;29;20488;-62
2022/08/13 04:53:05;;;;;;;4.47;1.90;;;;;;;16.93;77.71;99960.94;4899129;29;20032;-63
2022/08/13 04:55:32;;;;;;;5.70;1.70;;;;;;;16.97;78.47;99967.84;4898652;29;20040;-62
2022/08/13 04:57:58;;;;;;;3.72;2.20;;;;;;;17.15;77.64;99973.97;4898568;29;20074;-62
2022/08/13 05:00:31;;;;;;;7.15;2.20;;;;;;;17.27;77.04;99973.19;4897814;29;20134;-62
2022/08/13 05:03:05;;;;;;;4.75;2.00;;;;;;;17.36;76.50;99968.16;4897998;29;20107;-62
2022/08/13 05:05:31;;;;;;;4.32;1.65;;;;;;;17.44;76.40;99971.25;4897787;29;20044;-62
2022/08/13 05:07:57;;;;;;;3.95;1.77;;;;;;;17.53;75.23;99965.31;4897816;29;20051;-62
2022/08/13 05:10:22;;;;;;;3.83;1.77;;;;;;;17.60;75.19;99965.78;4897490;29;20093;-62
2022/08/13 05:12:48;;;;;;;3.33;1.55;;;;;;;17.65;75.48;99964.56;4897947;29;20075;-62
2022/08/13 05:15:13;;;;;;;3.80;1.95;;;;;;;17.75;75.50;99959.47;4898531;29;20062;-62
2022/08/13 05:17:40;;;;;;;6.00;2.33;;;;;;;17.71;75.43;99964.16;4898593;29;20048;-62
2022/08/13 05:20:13;;;;;;;7.28;1.80;;;;;;;17.78;75.28;99965.53;4898540;29;20051;-62
2022/08/13 05:22:39;;;;;;;4.97;1.70;;;;;;;17.91;73.52;99966.47;4881248;29;20032;-62
2022/08/13 05:25:05;;;;;;;4.88;1.70;;;;;;;17.94;73.18;99971.66;4897682;29;20303;-62
2022/08/13 05:27:31;;;;;;;3.53;1.77;;;;;;;18.03;72.71;99965.72;4898323;29;20496;-62
2022/08/13 05:29:58;;;;;;;8.07;2.22;;;;;;;18.14;73.01;99968.56;4898156;29;20028;-62
2022/08/13 05:32:25;;;;;;;6.18;1.67;;;;;;;18.25;72.64;99963.34;4898089;29;20101;-62
2022/08/13 05:34:51;;;;;;;2.40;1.73;;;;;;;18.45;72.28;99972.00;4898040;29;20084;-62
2022/08/13 05:37:17;;;;;;;3.38;1.75;;;;;;;18.59;71.81;99974.66;4897770;29;20024;-62
2022/08/13 05:39:46;;;;;;;6.60;2.10;;;;;;;18.70;71.12;99977.53;4898300;29;20040;-62
2022/08/13 05:42:13;;;;;;;4.28;2.67;;;;;;;18.90;70.40;99977.91;4897967;29;20080;-62
2022/08/13 05:44:39;;;;;;;4.55;1.75;;;;;;;19.22;68.82;99976.59;4897923;29;20096;-62
2022/08/13 05:47:05;;;;;;;3.90;1.88;;;;;;;19.48;67.40;99974.84;4897622;29;20116;-62
2022/08/13 05:49:31;;;;;;;4.20;1.63;;;;;;;19.55;66.23;99974.28;4897984;29;20039;-62
2022/08/13 05:51:57;;;;;;;4.57;1.50;;;;;;;19.59;65.65;99980.34;4897611;29;20391;-62
2022/08/13 05:54:23;;;;;;;16.27;2.25;;;;;;;19.65;66.41;99969.97;4898033;29;20025;-62
2022/08/13 05:56:49;;;;;;;4.15;1.90;;;;;;;19.76;66.50;99977.31;4897673;29;20037;-62
2022/08/13 06:04:42;;;;;;;3.97;1.63;;;;;;;20.13;64.67;99975.56;4897587;29;20576;-62
2022/08/13 06:07:11;;;;;;;4.18;1.88;;;;;;;20.28;63.34;99975.34;4897474;29;20060;-62
2022/08/13 06:09:37;;;;;;;3.17;1.80;;;;;;;20.42;63.22;99983.31;4897748;29;20028;-62
2022/08/13 06:12:03;;;;;;;2.97;1.55;;;;;;;20.60;61.88;99975.69;4899478;29;20769;-62
2022/08/13 06:14:35;;;;;;;3.22;1.73;;;;;;;20.73;62.02;99977.34;4897401;29;20056;-63
2022/08/13 06:17:02;;;;;;;4.30;1.70;;;;;;;20.99;62.02;99986.22;4893934;29;20473;-63
2022/08/13 06:19:32;;;;;;;4.20;1.45;;;;;;;21.21;60.90;99982.75;4878573;29;20409;-62
2022/08/13 06:22:04;;;;;;;3.08;2.00;;;;;;;21.41;61.02;99982.97;4878583;29;20044;-62
2022/08/13 06:24:32;;;;;;;3.80;1.70;;;;;;;21.58;59.90;99987.06;4878456;29;20033;-62
2022/08/13 06:27:00;;;;;;;5.22;1.60;;;;;;;21.80;59.59;99987.13;4878369;29;20072;-62
2022/08/13 06:29:28;;;;;;;3.80;1.80;;;;;;;21.88;57.59;99965.72;4878399;29;20399;-62
2022/08/13 06:31:55;;;;;;;2.72;1.60;;;;;;;21.89;57.69;99971.00;4883857;29;20032;-63
2022/08/13 06:34:22;;;;;;;2.25;1.42;;;;;;;22.06;57.07;99962.41;4899313;29;20378;-63
2022/08/13 06:36:48;;;;;;;3.72;1.80;;;;;;;22.18;56.99;99956.00;4896942;29;20024;-63
2022/08/13 06:39:15;;;;;;;2.60;1.70;;;;;;;22.41;56.32;99977.63;4896878;29;20032;-63
2022/08/13 06:41:42;;;;;;;2.42;1.27;;;;;;;22.50;55.32;99983.19;4896917;29;20497;-63
2022/08/13 06:44:08;;;;;;;2.47;1.55;;;;;;;22.65;54.84;99979.22;4886782;29;20037;-63
2022/08/13 06:46:34;;;;;;;3.17;1.50;;;;;;;22.77;55.89;99978.22;4889906;29;20080;-63
2022/08/13 06:49:02;;;;;;;4.68;1.70;;;;;;;22.99;54.39;99975.44;4899157;29;20044;-63
2022/08/13 06:51:28;;;;;;;3.88;1.48;;;;;;;23.27;54.75;99979.44;4896773;29;20059;-63
2022/08/13 06:53:54;;;;;;;2.78;1.42;;;;;;;23.49;53.83;99983.88;4896726;29;20510;-63
2022/08/13 06:56:22;;;;;;;4.25;2.22;;;;;;;23.60;52.84;99983.81;4896640;29;20111;-63
2022/08/13 06:58:50;;;;;;;2.42;1.50;;;;;;;23.75;52.65;99982.47;4896619;29;20028;-63
2022/08/13 07:01:22;;;;;;;1.65;1.20;;;;;;;23.97;52.03;99979.63;4896565;29;20053;-63
2022/08/13 07:03:48;;;;;;;4.45;1.50;;;;;;;24.17;51.54;99984.16;4896495;29;20111;-63
2022/08/13 07:06:26;;;;;;;2.13;1.30;;;;;;;24.47;50.71;99981.41;4896391;29;20038;-63
2022/08/13 07:08:56;;;;;;;2.17;1.45;;;;;;;24.73;49.39;99979.94;4896566;29;20071;-63
2022/08/13 07:11:27;;;;;;;3.00;1.67;;;;;;;24.91;47.83;99978.25;4896169;29;20032;-63
2022/08/13 07:13:58;;;;;;;1.65;1.13;;;;;;;25.17;48.30;99981.31;4896441;29;20401;-63
2022/08/13 07:16:30;;;;;;;2.75;1.65;;;;;;;25.52;47.33;99977.00;4896181;29;20080;-63
2022/08/13 07:18:57;;;;;;;1.77;1.23;;;;;;;25.78;45.66;99980.81;4896801;29;20124;-63
2022/08/13 07:21:24;;;;;;;3.42;1.38;;;;;;;26.06;45.77;99968.19;4896365;29;20055;-63
2022/08/13 07:23:51;;;;;;;3.35;1.45;;;;;;;26.33;44.72;99970.06;4896214;29;20036;-63
2022/08/13 07:26:18;;;;;;;2.50;1.27;;;;;;;26.56;43.52;99976.81;4895852;29;20450;-63
2022/08/13 07:28:46;;;;;;;3.33;1.10;;;;;;;27.02;44.03;99974.84;4896137;29;20472;-63
2022/08/13 07:31:14;;;;;;;2.72;1.20;;;;;;;27.43;42.93;99967.91;4896252;29;20028;-62
2022/08/13 07:33:51;;;;;;;1.95;1.17;;;;;;;27.80;41.83;99973.16;4896202;29;20040;-63
2022/08/13 07:36:19;;;;;;;4.43;1.45;;;;;;;27.95;41.95;99977.06;4896219;29;20107;-62
2022/08/13 07:38:46;;;;;;;2.03;1.20;;;;;;;28.16;40.28;99978.41;4895520;29;20028;-62
2022/08/13 07:41:12;;;;;;;2.08;1.13;;;;;;;28.36;40.66;99971.66;4889019;29;20060;-63
2022/08/13 07:43:42;;;;;;;2.80;1.13;;;;;;;28.45;39.23;99978.88;4876918;29;20488;-63
2022/08/13 07:46:12;;;;;;;3.05;1.30;;;;;;;28.89;39.77;99981.47;4884973;29;20128;-62
2022/08/13 07:48:41;;;;;;;2.38;1.17;;;;;;;29.27;38.75;99965.31;4895537;29;20032;-62
2022/08/13 07:51:19;;;;;;;2.47;1.30;;;;;;;29.53;37.79;99978.84;4895254;29;20032;-63
2022/08/13 07:53:49;;;;;;;2.53;1.00;;;;;;;29.60;37.95;99977.97;4895256;29;20028;-63
2022/08/13 07:56:28;;;;;;;4.07;1.20;;;;;;;29.58;37.03;99984.69;4895121;29;20040;-63
2022/08/13 07:59:00;;;;;;;2.28;1.15;;;;;;;29.43;36.93;99970.81;4895245;29;20032;-63
2022/08/13 08:01:27;;;;;;;2.08;1.10;;;;;;;29.65;37.51;99982.97;4879928;29;20053;-63
2022/08/13 08:03:56;;;;;;;2.33;1.10;;;;;;;29.85;37.12;99970.66;4894738;29;20028;-62
2022/08/13 08:06:22;;;;;;;2.35;0.93;;;;;;;30.47;37.62;99975.31;4894061;29;20029;-63
2022/08/13 08:08:53;;;;;;;2.60;1.02;;;;;;;30.91;35.73;99983.03;4894251;29;20374;-63
2022/08/13 08:14:04;;;;;;;3.35;1.20;;;;;;;31.46;34.90;99975.47;4894313;29;20047;-63
2022/08/13 08:16:31;;;;;;;2.33;1.17;;;;;;;31.07;35.23;99969.19;4894756;29;20473;-63
2022/08/13 08:18:59;;;;;;;6.55;1.48;;;;;;;31.21;35.91;99968.41;4881718;29;20124;-64
2022/08/13 08:21:25;;;;;;;1.77;1.00;;;;;;;31.02;34.95;99971.63;4877302;29;20037;-64
2022/08/13 08:23:57;;;;;;;1.42;0.85;;;;;;;31.09;35.11;99969.88;4878837;29;20029;-63
2022/08/13 08:26:27;;;;;;;2.00;0.90;;;;;;;31.48;34.56;99973.41;4898238;29;20029;-63
2022/08/13 08:28:58;;;;;;;2.20;0.90;;;;;;;31.39;34.34;99969.84;4898612;29;20064;-63
2022/08/13 08:31:25;;;;;;;1.83;1.10;;;;;;;31.67;34.21;99972.88;4898422;29;20039;-63
2022/08/13 08:33:51;;;;;;;2.33;1.00;;;;;;;31.90;34.94;99962.72;4898375;29;20032;-63
2022/08/13 08:36:17;;;;;;;23.30;2.95;;;;;;;32.11;33.74;99965.59;4881894;29;20485;-63
2022/08/13 08:44:20;;;;;;;14.60;1.90;;;;;;;32.21;33.84;99968.91;4895399;29;20167;-63
2022/08/13 08:46:47;;;;;;;5.20;1.33;;;;;;;32.71;32.30;99958.00;4898360;29;20033;-64
2022/08/13 08:49:13;;;;;;;4.60;1.33;;;;;;;32.68;32.65;99950.13;4898079;29;20028;-64
2022/08/13 08:51:40;;;;;;;3.53;1.95;;;;;;;32.75;32.68;99956.56;4883696;29;20035;-64
2022/08/13 08:54:06;;;;;;;2.20;1.17;;;;;;;32.69;33.68;99949.06;4879513;29;20402;-64
2022/08/13 08:56:34;;;;;;;1.75;1.05;;;;;;;33.24;33.34;99952.09;4880165;29;20398;-64
2022/08/13 08:58:59;;;;;;;2.22;1.02;;;;;;;33.65;33.18;99952.31;4880033;29;21017;-64
2022/08/13 09:01:25;;;;;;;1.60;1.00;;;;;;;33.87;31.72;99950.34;4881778;29;20048;-65
2022/08/13 09:03:56;;;;;;;1.83;1.10;;;;;;;33.38;31.47;99946.72;4882877;29;20032;-64
2022/08/13 09:06:23;;;;;;;11.23;1.50;;;;;;;33.49;30.95;99951.72;4880343;29;20485;-64
2022/08/13 09:08:52;;;;;;;1.90;1.10;;;;;;;33.54;30.90;99946.47;4880051;29;20124;-64
2022/08/13 09:11:19;;;;;;;3.08;1.02;;;;;;;33.59;31.91;99942.06;4897865;29;20028;-64
2022/08/13 09:13:47;;;;;;;6.70;1.92;;;;;;;34.01;31.02;99938.38;4895120;29;20025;-65
2022/08/13 09:16:13;;;;;;;1.88;1.10;;;;;;;33.92;31.13;99947.88;4895867;29;20043;-65
2022/08/13 09:18:40;;;;;;;1.83;1.05;;;;;;;33.77;31.32;99944.34;4882126;29;20043;-65
2022/08/13 09:21:06;;;;;;;3.67;0.98;;;;;;;34.12;30.98;99943.38;4878751;29;20089;-65
2022/08/13 09:23:34;;;;;;;3.75;1.02;;;;;;;34.24;31.75;99938.97;4883998;29;20029;-65
2022/08/13 09:25:59;;;;;;;2.50;1.25;;;;;;;34.06;30.58;99922.94;4878947;29;20037;-65
2022/08/13 09:28:26;;;;;;;1.58;0.90;;;;;;;34.29;30.86;99941.97;4883658;29;20025;-65
2022/08/13 09:30:53;;;;;;;2.53;1.20;;;;;;;34.58;30.61;99933.47;4897521;29;20679;-65
2022/08/13 09:33:20;;;;;;;1.50;1.20;;;;;;;34.61;29.52;99932.19;4883537;29;20669;-65
2022/08/13 09:35:49;;;;;;;1.42;0.93;;;;;;;34.41;29.83;99932.09;4877574;29;20029;-65
2022/08/13 09:38:15;;;;;;;6.10;1.10;;;;;;;34.70;30.71;99926.25;4878578;29;20043;-66
2022/08/13 09:40:55;;;;;;;2.85;1.38;;;;;;;34.97;30.27;99930.00;4878675;29;20033;-65
2022/08/13 09:43:31;;;;;;;2.72;1.35;;;;;;;35.07;30.20;99927.69;4878943;29;20033;-65
2022/08/13 09:45:57;;;;;;;2.53;1.00;;;;;;;35.16;28.92;99932.81;4886228;29;20474;-66
2022/08/13 09:48:24;;;;;;;3.47;1.00;;;;;;;34.99;29.66;99931.53;4892529;29;20036;-66
2022/08/13 09:50:49;;;;;;;5.40;1.35;;;;;;;35.20;30.29;99936.88;4891196;29;20031;-65
2022/08/13 09:53:15;;;;;;;2.38;1.13;;;;;;;35.54;29.07;99922.91;4881713;29;20025;-65
2022/08/13 09:55:40;;;;;;;2.45;1.20;;;;;;;35.71;28.88;99926.97;4878450;29;20025;-66
2022/08/13 09:58:08;;;;;;;2.80;1.00;;;;;;;35.57;28.79;99924.38;4878226;29;20037;-65
2022/08/13 10:00:33;;;;;;;1.48;1.00;;;;;;;35.24;28.32;99924.31;4878555;29;20135;-66
2022/08/13 10:03:03;;;;;;;1.40;0.82;;;;;;;35.56;28.45;99922.69;4892903;29;20115;-66
2022/08/13 10:05:34;;;;;;;2.30;1.00;;;;;;;35.75;28.19;99913.53;4897569;29;20034;-66
2022/08/13 10:08:04;;;;;;;2.35;1.10;;;;;;;35.99;28.74;99912.03;4897574;29;20029;-66
2022/08/13 10:10:29;;;;;;;1.38;0.82;;;;;;;35.96;28.39;99909.69;4886187;29;20138;-66
2022/08/13 10:12:55;;;;;;;3.65;1.10;;;;;;;36.12;28.26;99912.88;4877338;29;20108;-66
2022/08/13 10:15:21;;;;;;;1.70;1.10;;;;;;;36.14;28.57;99907.13;4877418;29;20063;-65
2022/08/13 10:17:50;;;;;;;2.85;0.90;;;;;;;36.01;28.47;99893.28;4877080;29;20040;-65
2022/08/13 10:20:17;;;;;;;3.30;1.20;;;;;;;36.12;28.68;99900.94;4877146;29;20116;-66
2022/08/13 10:22:43;;;;;;;4.78;1.10;;;;;;;35.82;28.33;99905.22;4879038;29;20037;-66
2022/08/13 10:25:09;;;;;;;1.35;1.00;;;;;;;35.99;28.30;99900.97;4893688;29;20473;-66
2022/08/13 10:27:35;;;;;;;2.17;1.08;;;;;;;36.02;27.75;99894.97;4893909;29;20036;-66
2022/08/13 10:30:03;;;;;;;1.83;1.10;;;;;;;35.95;28.41;99883.09;4884402;29;20096;-65
2022/08/13 10:32:28;;;;;;;2.22;1.10;;;;;;;36.22;28.62;99888.34;4886992;29;20088;-66
2022/08/13 10:34:54;;;;;;;1.58;1.13;;;;;;;36.35;27.55;99884.69;4891981;29;20033;-66
2022/08/13 10:37:21;;;;;;;1.50;0.80;;;;;;;36.55;28.26;99885.47;4876185;29;20039;-65
2022/08/13 10:39:47;;;;;;;2.45;1.15;;;;;;;36.86;27.95;99880.00;4876626;29;20052;-66
2022/08/13 10:42:12;;;;;;;2.78;1.02;;;;;;;37.04;27.28;99879.28;4896724;29;20036;-66
2022/08/13 10:44:40;;;;;;;2.10;1.00;;;;;;;36.99;27.17;99889.13;4893355;29;20508;-66
2022/08/13 10:47:06;;;;;;;3.95;0.90;;;;;;;36.76;26.61;99872.16;4878267;29;20269;-66
2022/08/13 10:49:32;;;;;;;1.85;1.10;;;;;;;36.85;27.44;99872.78;4875843;29;20077;-65
2022/08/13 10:51:58;;;;;;;1.67;0.95;;;;;;;36.95;26.86;99871.19;4893477;29;20441;-66
2022/08/13 10:54:25;;;;;;;1.75;1.00;;;;;;;36.43;27.14;99878.91;4888495;29;20210;-66
2022/08/13 10:56:51;;;;;;;1.98;1.00;;;;;;;36.16;27.57;99864.28;4881449;29;20475;-66
2022/08/13 10:59:16;;;;;;;2.00;1.05;;;;;;;36.36;26.68;99853.16;4893343;29;20025;-66
2022/08/13 11:01:42;;;;;;;1.92;1.02;;;;;;;36.72;28.10;99864.50;4893920;29;20043;-66
2022/08/13 11:04:08;;;;;;;2.50;1.10;;;;;;;36.72;27.41;99843.16;4877403;29;20427;-66
2022/08/13 11:06:35;;;;;;;1.40;0.88;;;;;;;36.40;26.21;99848.88;4883306;29;20079;-66
2022/08/13 11:09:01;;;;;;;2.63;1.02;;;;;;;36.51;26.36;99857.34;4892963;29;20032;-66
2022/08/13 11:11:30;;;;;;;3.97;1.00;;;;;;;36.65;25.62;99859.00;4894178;29;20029;-66
2022/08/13 11:13:55;;;;;;;2.85;0.98;;;;;;;36.74;25.48;99849.31;4891992;29;20512;-66
2022/08/13 11:19:00;;;;;;;1.75;1.10;;;;;;;36.52;25.35;99852.66;4894429;29;20036;-65
2022/08/13 11:21:26;;;;;;;3.25;1.05;;;;;;;36.81;25.33;99835.47;4888747;29;20037;-65
2022/08/13 11:23:53;;;;;;;1.75;0.90;;;;;;;36.90;25.43;99842.44;4876290;29;20024;-65
2022/08/13 11:26:19;;;;;;;1.40;1.10;;;;;;;37.15;25.10;99837.81;4876201;29;20088;-65
2022/08/13 11:28:45;;;;;;;3.10;0.98;;;;;;;37.47;24.94;99836.69;4875437;29;20052;-65
2022/08/13 11:31:10;;;;;;;1.50;0.80;;;;;;;37.69;24.69;99835.25;4875866;29;20037;-65
2022/08/13 11:33:36;;;;;;;3.15;0.85;;;;;;;37.65;24.44;99838.66;4881739;29;20036;-64
2022/08/13 11:36:02;;;;;;;2.15;0.73;;;;;;;37.07;23.63;99834.44;4876249;29;20134;-65
2022/08/13 11:38:27;;;;;;;1.40;0.75;;;;;;;37.20;24.66;99846.28;4875516;29;20044;-64
2022/08/13 11:40:55;;;;;;;1.63;1.00;;;;;;;37.43;23.47;99841.00;4884766;29;20032;-64
2022/08/13 11:43:30;;;;;;;2.15;1.02;;;;;;;37.84;23.90;99838.47;4894972;29;20434;-64
2022/08/13 11:45:56;;;;;;;2.55;0.82;;;;;;;37.99;23.77;99829.81;4893820;29;20032;-64
2022/08/13 11:48:23;;;;;;;1.80;0.88;;;;;;;38.16;23.56;99836.47;4882657;29;20036;-64
2022/08/13 11:50:50;;;;;;;6.03;1.10;;;;;;;38.13;22.74;99837.75;4874644;29;20051;-64
2022/08/13 11:53:16;;;;;;;3.72;1.10;;;;;;;38.07;23.55;99838.66;4874823;29;20094;-64
2022/08/13 11:55:41;;;;;;;2.63;0.90;;;;;;;37.63;23.37;99841.66;4885683;29;20107;-64
2022/08/13 11:58:08;;;;;;;1.73;0.77;;;;;;;37.78;22.09;99841.31;4893107;29;20083;-64
2022/08/13 12:00:35;;;;;;;3.22;0.80;;;;;;;37.89;23.44;99835.88;4897288;29;20057;-64